EDT,Max TemperatureF,Mean TemperatureF,Min TemperatureF,Max Dew PointF,MeanDew PointF,Min DewpointF,Max Humidity, Mean Humidity, Min Humidity, Max Sea Level PressureIn, Mean Sea Level PressureIn, Min Sea Level PressureIn, Max VisibilityMiles, Mean VisibilityMiles, Min VisibilityMiles, Max Wind SpeedMPH, Mean Wind SpeedMPH, Max Gust SpeedMPH,PrecipitationIn, CloudCover, Events, WindDirDegrees
2012-10-1,64,60,55,61,56,54,94,92,88,29.87,29.75,29.63,10,8,2,15,5,21,0.00,6,,93
2012-10-2,73,66,60,66,61,57,100,86,65,29.96,29.78,29.65,10,9,2,13,6,22,0.00,8,,207
2012-10-3,71,63,55,57,53,50,88,72,46,30.18,30.09,29.96,10,10,7,10,6,,0.00,3,,210
2012-10-4,75,66,57,59,55,52,88,72,47,30.28,30.23,30.18,10,10,7,12,6,,0.00,1,,212
2012-10-5,77,67,57,61,56,54,88,68,44,30.22,30.11,29.96,10,10,7,13,7,17,0.00,2,,201
2012-10-6,68,55,42,55,39,30,93,68,36,30.17,30.10,29.93,10,10,4,21,8,28,0.00,5,,317
2012-10-7,55,48,41,41,38,34,93,68,44,30.18,30.14,30.09,10,10,10,9,2,,0.00,6,,305
2012-10-8,53,46,39,43,39,37,93,81,58,30.25,30.18,30.14,10,10,10,6,1,,0.00,4,,106
2012-10-9,60,46,32,43,39,32,100,76,42,30.19,30.12,30.02,10,8,0,10,2,,0.00,1,,158
2012-10-10,60,51,42,46,41,32,93,69,38,30.25,30.10,30.01,10,10,10,16,8,24,0.00,4,,254
2012-10-11,64,48,32,37,33,30,100,66,32,30.31,30.25,30.19,10,9,3,8,2,,0.00,0,,207
2012-10-12,64,52,41,45,41,37,93,69,42,30.33,30.28,30.22,10,10,2,7,2,,0.00,3,,95
2012-10-13,75,57,39,57,49,39,100,72,50,30.33,30.23,30.12,10,7,0,14,5,22,0.00,3,,175
2012-10-14,71,66,62,61,56,52,83,68,60,30.11,29.98,29.84,10,10,7,26,16,34,0.00,3,,194
2012-10-15,62,54,46,57,44,39,88,65,42,29.98,29.93,29.87,10,10,10,17,10,25,0.00,3,,272
2012-10-16,66,52,37,43,38,34,100,62,30,30.03,29.96,29.86,10,10,7,8,2,,0.00,0,,184
2012-10-17,75,64,53,48,44,39,77,51,35,29.89,29.80,29.64,10,10,7,15,8,21,0.00,0,,175
2012-10-18,64,58,53,52,40,25,94,55,24,29.75,29.70,29.57,10,10,7,20,11,30,0.00,5,,216
2012-10-19,60,54,48,39,37,34,66,57,39,29.79,29.70,29.64,10,10,10,22,10,32,0.00,5,,218
2012-10-20,53,50,46,43,41,39,87,73,62,30.01,29.89,29.79,10,10,10,13,6,,0.00,8,,238
2012-10-21,68,56,44,45,43,41,93,65,40,30.16,30.10,30.01,10,10,7,8,3,,0.00,3,,166
2012-10-22,75,66,57,55,47,43,68,55,38,30.21,30.14,30.10,10,10,7,15,6,16,0.00,4,,204
2012-10-23,78,68,59,52,47,45,67,47,30,30.16,30.10,30.06,10,10,7,14,7,22,0.00,0,,200
2012-10-24,78,66,55,52,48,43,77,53,28,30.19,30.12,30.07,10,10,1,9,5,,0.00,1,,192
2012-10-25,78,64,50,54,48,45,82,53,32,30.11,30.06,30.00,10,10,5,16,6,22,0.00,0,,191
2012-10-26,69,58,46,57,51,45,93,74,60,30.10,30.06,30.02,10,10,10,15,5,21,0.00,4,,311
2012-10-27,48,46,44,45,43,41,100,90,81,30.09,30.05,30.01,10,9,3,13,7,20,0.00,8,,358
2012-10-28,46,44,42,41,38,36,93,80,71,30.05,30.00,29.97,10,9,2,15,8,20,0.00,8,,360
2012-10-29,44,40,37,37,31,21,81,67,42,30.01,29.94,29.76,10,10,10,26,12,38,0.00,8,,323
2012-10-30,42,38,35,36,34,27,93,85,53,29.74,29.66,29.60,10,8,4,25,18,38,0.00,8,,284
2012-10-31,48,42,37,36,33,30,93,70,54,29.87,29.78,29.73,10,10,5,17,12,24,0.00,8,,275